createdAt,value
2018-09-24T00:02:25.235Z,17.23
2018-09-24T00:04:57.997Z,17.20
2018-09-24T00:07:29.511Z,17.27
2018-09-24T00:10:00.060Z,17.29
2018-09-24T00:12:31.124Z,17.42
2018-09-24T00:15:01.797Z,17.42
2018-09-24T00:17:31.991Z,17.32
2018-09-24T00:20:02.217Z,17.27
2018-09-24T00:22:32.423Z,17.28
2018-09-24T00:25:03.256Z,17.30
2018-09-24T00:27:33.800Z,17.32
2018-09-24T00:30:05.797Z,17.34
2018-09-24T00:32:36.593Z,17.42
2018-09-24T00:35:07.496Z,17.37
2018-09-24T00:37:37.972Z,17.33
2018-09-24T00:40:08.669Z,17.27
2018-09-24T00:42:39.156Z,17.20
2018-09-24T00:45:09.732Z,17.16
2018-09-24T00:47:40.498Z,16.93
2018-09-24T00:50:11.028Z,16.82
2018-09-24T00:52:41.516Z,16.41
2018-09-24T00:55:11.767Z,16.05
2018-09-24T00:57:42.156Z,15.80
2018-09-24T01:00:12.899Z,15.55
2018-09-24T01:02:43.375Z,15.25
2018-09-24T01:05:14.237Z,14.79
2018-09-24T01:07:44.709Z,14.42
2018-09-24T01:10:15.801Z,14.11
2018-09-24T01:12:47.416Z,13.93
2018-09-24T01:15:17.975Z,13.84
2018-09-24T01:17:53.857Z,13.82
2018-09-24T01:20:24.344Z,13.70
2018-09-24T01:22:54.853Z,13.49
2018-09-24T01:25:25.552Z,13.29
2018-09-24T01:27:56.221Z,13.09
2018-09-24T01:30:26.938Z,13.00
2018-09-24T01:32:58.124Z,12.92
2018-09-24T01:35:28.729Z,12.88
2018-09-24T01:37:59.760Z,12.81
2018-09-24T01:40:30.561Z,12.79
2018-09-24T01:43:00.766Z,12.74
2018-09-24T01:45:31.039Z,12.75
2018-09-24T01:48:01.516Z,12.76
2018-09-24T01:50:31.744Z,12.75
2018-09-24T01:53:04.652Z,12.77
2018-09-24T01:55:35.257Z,12.72
2018-09-24T01:58:05.483Z,12.70
2018-09-24T02:00:36.052Z,12.63
2018-09-24T02:03:06.555Z,12.66
2018-09-24T02:05:36.786Z,12.63
2018-09-24T02:08:07.296Z,12.61
2018-09-24T02:10:37.516Z,12.64
2018-09-24T02:13:07.975Z,12.61
2018-09-24T02:15:38.592Z,12.59
2018-09-24T02:18:09.115Z,12.59
2018-09-24T02:20:47.677Z,12.53
2018-09-24T02:23:19.048Z,12.55
2018-09-24T02:25:49.284Z,12.58
2018-09-24T02:28:19.842Z,12.56
2018-09-24T02:30:50.317Z,12.50
2018-09-24T02:33:21.089Z,12.55
2018-09-24T02:35:51.775Z,12.55
2018-09-24T02:38:22.318Z,12.50
2018-09-24T02:40:53.140Z,12.53
2018-09-24T02:43:25.436Z,12.50
2018-09-24T02:45:56.329Z,12.49
2018-09-24T02:48:26.837Z,12.48
2018-09-24T02:50:57.073Z,12.45
2018-09-24T02:53:27.564Z,12.47
2018-09-24T02:55:58.229Z,12.39
2018-09-24T02:58:28.453Z,12.41
2018-09-24T03:00:58.713Z,12.36
2018-09-24T03:03:29.292Z,12.35
2018-09-24T03:05:59.772Z,12.34
2018-09-24T03:08:30.480Z,12.34
2018-09-24T03:11:04.635Z,8.53
2018-09-24T03:13:34.976Z,12.27
2018-09-24T03:16:05.736Z,12.23
2018-09-24T03:18:36.264Z,12.22
2018-09-24T03:21:07.611Z,12.13
2018-09-24T03:23:38.996Z,12.07
2018-09-24T03:26:09.983Z,12.02
2018-09-24T03:29:43.134Z,11.99
2018-09-24T03:32:13.627Z,11.86
2018-09-24T03:34:44.097Z,11.88
2018-09-24T03:37:14.593Z,11.82
2018-09-24T03:39:45.205Z,11.77
2018-09-24T03:42:15.805Z,11.75
2018-09-24T03:44:46.692Z,11.72
2018-09-24T03:47:17.195Z,11.71
2018-09-24T03:49:47.639Z,11.71
2018-09-24T03:52:18.144Z,11.62
2018-09-24T03:54:48.793Z,11.56
2018-09-24T03:57:19.521Z,11.53
2018-09-24T03:59:49.950Z,11.51
2018-09-24T04:02:20.702Z,11.46
2018-09-24T04:04:56.220Z,11.45
2018-09-24T04:07:32.063Z,11.40
2018-09-24T04:10:07.901Z,11.36
2018-09-24T04:12:44.145Z,10.92
2018-09-24T04:15:20.156Z,11.39
2018-09-24T04:17:56.225Z,11.38
2018-09-24T04:20:32.052Z,11.40
2018-09-24T04:23:07.849Z,11.40
2018-09-24T04:25:43.367Z,11.39
2018-09-24T04:28:19.216Z,11.38
2018-09-24T04:30:54.854Z,11.33
2018-09-24T04:33:31.175Z,11.33
2018-09-24T04:36:07.052Z,11.33
2018-09-24T04:38:42.892Z,11.33
2018-09-24T04:41:18.592Z,11.42
2018-09-24T04:43:54.464Z,11.29
2018-09-24T04:46:30.235Z,11.35
2018-09-24T04:49:06.213Z,11.42
2018-09-24T04:51:42.458Z,11.33
2018-09-24T04:54:18.641Z,11.36
2018-09-24T04:56:54.360Z,11.29
2018-09-24T04:59:29.959Z,11.38
2018-09-24T05:02:05.931Z,11.38
2018-09-24T05:04:43.140Z,11.27
2018-09-24T05:07:18.848Z,11.29
2018-09-24T05:09:55.427Z,11.34
2018-09-24T05:12:30.965Z,11.34
2018-09-24T05:15:06.388Z,11.34
2018-09-24T05:17:42.201Z,11.39
2018-09-24T05:20:18.065Z,11.47
2018-09-24T05:22:54.036Z,11.41
2018-09-24T05:25:29.865Z,11.40
2018-09-24T05:28:05.523Z,11.41
2018-09-24T05:30:41.213Z,11.44
2018-09-24T05:33:17.104Z,11.48
2018-09-24T05:35:53.415Z,11.52
2018-09-24T05:38:29.491Z,11.52
2018-09-24T05:41:11.651Z,11.51
2018-09-24T05:43:47.202Z,11.53
2018-09-24T05:46:23.704Z,11.53
2018-09-24T05:48:59.645Z,11.50
2018-09-24T05:51:35.063Z,11.56
2018-09-24T05:54:10.911Z,11.51
2018-09-24T05:56:47.087Z,11.55
2018-09-24T05:59:22.888Z,11.60
2018-09-24T06:01:58.749Z,11.56
2018-09-24T06:04:34.658Z,11.58
2018-09-24T06:07:11.119Z,11.69
2018-09-24T06:09:46.683Z,11.72
2018-09-24T06:12:22.560Z,11.74
2018-09-24T06:15:02.029Z,11.77
2018-09-24T06:17:37.653Z,11.72
2018-09-24T06:20:14.161Z,11.82
2018-09-24T06:22:49.648Z,11.68
2018-09-24T06:25:24.960Z,11.68
2018-09-24T06:28:00.798Z,11.70
2018-09-24T06:30:36.429Z,11.64
2018-09-24T06:33:12.257Z,11.72
2018-09-24T06:35:47.577Z,11.73
2018-09-24T06:38:23.702Z,11.79
2018-09-24T06:40:59.522Z,11.85
2018-09-24T06:43:35.436Z,11.92
2018-09-24T06:46:11.598Z,11.93
2018-09-24T06:48:47.384Z,12.07
2018-09-24T06:51:24.095Z,12.13
2018-09-24T06:53:59.704Z,12.13
2018-09-24T06:56:35.559Z,11.99
2018-09-24T06:59:11.796Z,11.88
2018-09-24T07:01:47.577Z,11.91
2018-09-24T07:04:23.311Z,11.84
2018-09-24T07:06:59.124Z,11.71
2018-09-24T07:09:34.998Z,11.81
2018-09-24T07:12:11.463Z,11.84
2018-09-24T07:14:47.267Z,11.80
2018-09-24T07:17:23.020Z,11.83
2018-09-24T07:19:58.582Z,11.87
2018-09-24T07:22:34.461Z,11.94
2018-09-24T07:25:14.292Z,12.00
2018-09-24T07:27:50.265Z,12.07
2018-09-24T07:30:25.814Z,12.16
2018-09-24T07:33:01.389Z,12.13
2018-09-24T07:35:37.280Z,12.14
2018-09-24T07:38:13.125Z,12.16
2018-09-24T07:40:48.607Z,11.94
2018-09-24T07:43:23.885Z,11.91
2018-09-24T07:46:00.046Z,11.82
2018-09-24T07:48:35.875Z,11.72
2018-09-24T07:51:11.722Z,11.73
2018-09-24T07:53:51.484Z,11.82
2018-09-24T07:56:30.445Z,11.85
2018-09-24T07:59:09.711Z,11.87
2018-09-24T08:01:45.345Z,11.89
2018-09-24T08:04:20.758Z,11.98
2018-09-24T08:06:56.398Z,12.01
2018-09-24T08:09:34.957Z,12.13
2018-09-24T08:12:18.565Z,12.20
2018-09-24T08:14:56.299Z,12.22
2018-09-24T08:17:35.525Z,12.32
2018-09-24T08:20:16.383Z,12.45
2018-09-24T08:22:54.560Z,12.42
2018-09-24T08:25:41.517Z,12.44
2018-09-24T08:28:24.977Z,12.39
2018-09-24T08:31:08.622Z,12.39
2018-09-24T08:33:47.061Z,12.33
2018-09-24T08:36:33.496Z,12.26
2018-09-24T08:39:15.909Z,12.27
2018-09-24T08:41:59.514Z,12.23
2018-09-24T08:44:44.309Z,12.28
2018-09-24T08:47:31.679Z,12.36
2018-09-24T08:50:17.338Z,12.38
2018-09-24T08:53:01.875Z,12.46
2018-09-24T08:55:44.994Z,12.60
2018-09-24T08:58:30.395Z,12.64
2018-09-24T09:01:09.296Z,12.57
2018-09-24T09:03:53.219Z,12.67
2018-09-24T09:06:33.479Z,12.79
2018-09-24T09:09:19.849Z,12.74
2018-09-24T09:12:03.776Z,12.80
2018-09-24T09:14:47.403Z,12.44
2018-09-24T09:17:34.839Z,12.40
2018-09-24T09:20:19.303Z,12.52
2018-09-24T09:22:56.879Z,12.71
2018-09-24T09:25:37.016Z,12.81
2018-09-24T09:28:16.207Z,12.72
2018-09-24T09:30:58.856Z,12.87
2018-09-24T09:33:36.068Z,12.90
2018-09-24T09:36:20.361Z,13.03
2018-09-24T09:39:05.490Z,13.42
2018-09-24T09:41:50.400Z,13.21
2018-09-24T09:44:34.521Z,13.20
2018-09-24T09:47:18.970Z,13.30
2018-09-24T09:49:56.561Z,12.95
2018-09-24T09:52:39.827Z,13.06
2018-09-24T09:55:24.790Z,13.31
2018-09-24T09:58:09.862Z,13.09
2018-09-24T10:01:00.212Z,13.00
2018-09-24T10:03:44.666Z,12.99
2018-09-24T10:06:29.323Z,13.12
2018-09-24T10:09:14.600Z,12.97
2018-09-24T10:11:58.659Z,13.10
2018-09-24T10:14:42.003Z,13.07
2018-09-24T10:17:18.601Z,13.06
2018-09-24T10:20:01.051Z,13.08
2018-09-24T10:22:45.084Z,12.90
2018-09-24T10:25:28.798Z,12.94
2018-09-24T10:28:18.381Z,13.01
2018-09-24T10:31:03.285Z,13.21
2018-09-24T10:33:39.626Z,13.58
2018-09-24T10:36:15.310Z,13.40
2018-09-24T10:38:50.921Z,13.35
2018-09-24T10:41:26.482Z,13.24
2018-09-24T10:44:02.213Z,13.22
2018-09-24T10:46:38.453Z,13.19
2018-09-24T10:49:17.535Z,13.22
2018-09-24T10:51:53.260Z,13.47
2018-09-24T10:54:28.877Z,13.38
2018-09-24T10:57:04.538Z,13.39
2018-09-24T10:59:41.843Z,13.66
2018-09-24T11:02:18.057Z,13.67
2018-09-24T11:04:53.938Z,13.71
2018-09-24T11:07:30.717Z,13.70
2018-09-24T11:10:06.590Z,13.57
2018-09-24T11:12:44.475Z,14.01
2018-09-24T11:15:20.856Z,14.14
2018-09-24T11:17:56.425Z,13.76
2018-09-24T11:20:32.131Z,13.97
2018-09-24T11:23:07.573Z,14.21
2018-09-24T11:25:43.426Z,14.02
2018-09-24T11:28:19.529Z,14.17
2018-09-24T11:30:55.347Z,14.36
2018-09-24T11:33:30.784Z,14.34
2018-09-24T11:36:06.413Z,14.37
2018-09-24T11:38:42.591Z,14.50
2018-09-24T11:41:18.148Z,14.55
2018-09-24T11:43:53.871Z,14.54
2018-09-24T11:46:29.939Z,14.53
2018-09-24T11:49:05.723Z,14.37
2018-09-24T11:51:41.596Z,14.66
2018-09-24T11:54:17.030Z,14.56
2018-09-24T11:56:53.077Z,14.71
2018-09-24T11:59:28.954Z,14.35
2018-09-24T12:02:04.896Z,14.19
2018-09-24T12:04:40.798Z,14.29
2018-09-24T12:07:16.349Z,14.31
2018-09-24T12:09:52.120Z,14.59
2018-09-24T12:12:28.181Z,14.87
2018-09-24T12:15:04.160Z,14.97
2018-09-24T12:17:39.707Z,14.90
2018-09-24T12:20:15.254Z,14.94
2018-09-24T12:22:51.007Z,14.65
2018-09-24T12:25:26.857Z,15.01
2018-09-24T12:28:02.176Z,15.37
2018-09-24T12:30:37.628Z,15.32
2018-09-24T12:33:13.214Z,15.09
2018-09-24T12:35:48.980Z,14.65
2018-09-24T12:38:25.472Z,14.84
2018-09-24T12:41:01.129Z,15.02
2018-09-24T12:43:36.869Z,14.70
2018-09-24T12:46:13.004Z,14.66
2018-09-24T12:48:48.927Z,15.03
2018-09-24T12:51:24.813Z,15.22
2018-09-24T12:54:00.720Z,15.23
2018-09-24T12:56:36.128Z,15.04
2018-09-24T12:59:11.948Z,14.90
2018-09-24T13:01:47.752Z,14.96
2018-09-24T13:04:23.768Z,15.40
2018-09-24T13:06:59.621Z,15.12
2018-09-24T13:09:35.508Z,14.97
2018-09-24T13:12:11.288Z,15.03
2018-09-24T13:14:47.003Z,14.97
2018-09-24T13:17:23.013Z,15.04
2018-09-24T13:19:58.564Z,14.88
2018-09-24T13:22:34.274Z,14.70
2018-09-24T13:25:10.038Z,14.61
2018-09-24T13:27:45.868Z,14.55
2018-09-24T13:30:21.228Z,14.42
2018-09-24T13:32:56.752Z,14.44
2018-09-24T13:35:32.640Z,14.56
2018-09-24T13:38:08.496Z,14.65
2018-09-24T13:40:44.063Z,14.71
2018-09-24T13:43:19.558Z,14.68
2018-09-24T13:45:55.405Z,14.52
2018-09-24T13:48:31.422Z,14.32
2018-09-24T13:51:07.236Z,14.48
2018-09-24T13:53:43.041Z,14.64
2018-09-24T13:56:18.787Z,14.68
2018-09-24T13:58:54.963Z,14.88
2018-09-24T14:01:30.839Z,14.88
2018-09-24T14:04:06.511Z,14.74
2018-09-24T14:06:42.120Z,15.01
2018-09-24T14:09:17.874Z,14.68
2018-09-24T14:11:53.324Z,14.15
2018-09-24T14:14:29.096Z,13.40
2018-09-24T14:17:04.812Z,13.29
2018-09-24T14:19:40.636Z,13.26
2018-09-24T14:22:16.000Z,13.31
2018-09-24T14:24:51.910Z,13.32
2018-09-24T14:27:28.125Z,13.46
2018-09-24T14:30:04.045Z,13.44
2018-09-24T14:32:39.636Z,13.68
2018-09-24T14:35:17.299Z,13.70
2018-09-24T14:37:53.035Z,13.88
2018-09-24T14:40:28.906Z,13.94
2018-09-24T14:43:04.782Z,13.98
2018-09-24T14:45:41.262Z,14.27
2018-09-24T14:48:17.108Z,14.06
2018-09-24T14:50:53.755Z,13.95
2018-09-24T14:53:29.907Z,14.11
2018-09-24T14:56:05.951Z,14.35
2018-09-24T14:58:41.809Z,14.32
2018-09-24T15:01:17.964Z,14.13
2018-09-24T15:03:53.688Z,14.37
2018-09-24T15:06:29.664Z,14.63
2018-09-24T15:09:05.356Z,14.82
2018-09-24T15:11:40.764Z,14.79
2018-09-24T15:14:16.373Z,14.39
2018-09-24T15:16:52.097Z,14.25
2018-09-24T15:19:28.130Z,14.19
2018-09-24T15:22:04.072Z,14.10
2018-09-24T15:24:40.130Z,13.76
2018-09-24T15:27:15.944Z,12.21
2018-09-24T15:29:51.850Z,13.75
2018-09-24T15:32:27.774Z,13.67
2018-09-24T15:35:03.373Z,13.69
2018-09-24T15:37:39.753Z,13.70
2018-09-24T15:40:15.323Z,13.81
2018-09-24T15:42:50.704Z,13.89
2018-09-24T15:45:27.561Z,13.81
2018-09-24T15:48:03.390Z,13.90
2018-09-24T15:50:39.536Z,14.01
2018-09-24T15:53:15.901Z,13.88
2018-09-24T15:55:51.535Z,13.78
2018-09-24T15:58:28.329Z,13.70
2018-09-24T16:01:04.661Z,13.63
2018-09-24T16:03:40.580Z,13.65
2018-09-24T16:06:19.478Z,13.58
2018-09-24T16:08:55.166Z,13.61
2018-09-24T16:11:31.409Z,13.60
2018-09-24T16:14:06.741Z,13.58
2018-09-24T16:16:42.199Z,13.56
2018-09-24T16:19:17.560Z,13.56
2018-09-24T16:21:53.403Z,13.44
2018-09-24T16:24:29.184Z,13.26
2018-09-24T16:27:04.530Z,13.55
2018-09-24T16:29:40.437Z,13.46
2018-09-24T16:32:16.258Z,13.32
2018-09-24T16:34:52.582Z,13.34
2018-09-24T16:37:28.089Z,13.31
2018-09-24T16:40:03.645Z,13.28
2018-09-24T16:42:39.470Z,13.33
2018-09-24T16:45:15.223Z,13.18
2018-09-24T16:47:51.330Z,13.07
2018-09-24T16:50:27.076Z,12.99
2018-09-24T16:53:02.897Z,12.90
2018-09-24T16:55:38.680Z,12.78
2018-09-24T16:58:14.040Z,12.64
2018-09-24T17:00:49.669Z,12.53
2018-09-24T17:03:25.383Z,12.46
2018-09-24T17:06:01.426Z,12.31
2018-09-24T17:08:37.216Z,12.18
2018-09-24T17:11:12.905Z,12.13
2018-09-24T17:13:48.813Z,12.04
2018-09-24T17:16:24.671Z,12.01
2018-09-24T17:19:00.498Z,11.98
2018-09-24T17:21:38.126Z,12.02
2018-09-24T17:24:13.875Z,12.01
2018-09-24T17:26:49.624Z,11.98
2018-09-24T17:29:25.481Z,11.94
2018-09-24T17:32:01.554Z,12.08
2018-09-24T17:34:37.003Z,12.02
2018-09-24T17:37:12.712Z,12.06
2018-09-24T17:39:48.399Z,12.16
2018-09-24T17:42:24.216Z,12.09
2018-09-24T17:44:59.718Z,12.17
2018-09-24T17:47:35.232Z,12.19
2018-09-24T17:50:11.158Z,12.23
2018-09-24T17:52:46.733Z,12.18
2018-09-24T17:55:22.554Z,12.21
2018-09-24T17:57:58.677Z,12.20
2018-09-24T18:00:34.606Z,12.18
2018-09-24T18:03:10.435Z,12.24
2018-09-24T18:05:46.040Z,12.24
2018-09-24T18:08:22.130Z,12.24
2018-09-24T18:11:03.970Z,12.29
2018-09-24T18:13:39.797Z,10.18
2018-09-24T18:16:15.335Z,12.31
2018-09-24T18:18:51.247Z,12.26
2018-09-24T18:21:27.092Z,12.31
2018-09-24T18:24:03.074Z,12.33
2018-09-24T18:26:38.628Z,12.32
2018-09-24T18:29:16.026Z,12.32
2018-09-24T18:31:51.632Z,12.37
2018-09-24T18:34:27.219Z,12.41
2018-09-24T18:37:03.207Z,12.41
2018-09-24T18:39:39.153Z,12.40
2018-09-24T18:42:14.519Z,12.38
2018-09-24T18:44:50.576Z,12.42
2018-09-24T18:47:26.520Z,12.43
2018-09-24T18:50:03.172Z,12.45
2018-09-24T18:52:39.009Z,12.59
2018-09-24T18:55:15.379Z,12.53
2018-09-24T18:57:51.250Z,12.55
2018-09-24T19:00:27.257Z,12.53
2018-09-24T19:03:03.141Z,12.51
2018-09-24T19:05:38.996Z,12.51
2018-09-24T19:08:14.874Z,12.48
2018-09-24T19:10:50.783Z,12.44
2018-09-24T19:13:26.499Z,12.48
2018-09-24T19:16:02.871Z,12.44
2018-09-24T19:18:38.714Z,12.43
2018-09-24T19:21:14.946Z,12.38
2018-09-24T19:23:50.841Z,12.41
2018-09-24T19:26:26.340Z,12.34
2018-09-24T19:29:02.226Z,12.33
2018-09-24T19:31:37.954Z,12.37
2018-09-24T19:34:13.645Z,12.37
2018-09-24T19:36:49.751Z,12.38
2018-09-24T19:39:25.558Z,12.41
2018-09-24T19:42:01.729Z,12.42
2018-09-24T19:44:37.295Z,12.39
2018-09-24T19:47:13.057Z,12.38
2018-09-24T19:49:49.012Z,12.39
2018-09-24T19:52:24.884Z,12.36
2018-09-24T19:55:00.862Z,12.28
2018-09-24T19:57:36.897Z,12.23
2018-09-24T20:00:13.133Z,12.17
2018-09-24T20:02:48.849Z,12.13
2018-09-24T20:05:24.892Z,12.10
2018-09-24T20:08:00.566Z,12.06
2018-09-24T20:10:36.071Z,12.07
2018-09-24T20:13:11.920Z,12.09
2018-09-24T20:15:47.950Z,12.00
2018-09-24T20:18:23.849Z,12.00
2018-09-24T20:20:59.616Z,12.04
2018-09-24T20:23:35.386Z,11.99
2018-09-24T20:26:11.288Z,11.91
2018-09-24T20:28:47.157Z,11.97
2018-09-24T20:31:22.940Z,12.01
2018-09-24T20:33:58.897Z,12.01
2018-09-24T20:36:34.813Z,12.00
2018-09-24T20:39:13.477Z,11.96
2018-09-24T20:41:49.272Z,12.01
2018-09-24T20:44:25.188Z,12.00
2018-09-24T20:47:00.901Z,12.00
2018-09-24T20:49:36.482Z,11.98
2018-09-24T20:52:12.068Z,12.00
2018-09-24T20:54:48.273Z,11.96
2018-09-24T20:57:24.091Z,11.99
2018-09-24T20:59:59.818Z,12.00
2018-09-24T21:02:36.916Z,11.81
2018-09-24T21:05:12.345Z,11.84
2018-09-24T21:07:48.733Z,11.83
2018-09-24T21:10:24.436Z,11.83
2018-09-24T21:13:00.492Z,11.75
2018-09-24T21:15:36.310Z,11.76
2018-09-24T21:18:12.133Z,11.75
2018-09-24T21:20:48.003Z,11.78
2018-09-24T21:23:23.843Z,11.75
2018-09-24T21:25:59.707Z,11.70
2018-09-24T21:28:35.388Z,11.69
2018-09-24T21:31:11.443Z,11.63
2018-09-24T21:33:46.860Z,11.59
2018-09-24T21:36:22.743Z,11.52
2018-09-24T21:38:59.676Z,11.55
2018-09-24T21:41:35.135Z,11.52
2018-09-24T21:44:10.820Z,11.55
2018-09-24T21:46:46.561Z,11.49
2018-09-24T21:49:22.312Z,11.47
2018-09-24T21:51:58.085Z,11.47
2018-09-24T21:54:34.092Z,11.46
2018-09-24T21:57:10.269Z,11.26
2018-09-24T21:59:46.023Z,11.42
2018-09-24T22:02:21.751Z,11.35
2018-09-24T22:04:57.063Z,11.34
2018-09-24T22:07:32.835Z,11.34
2018-09-24T22:10:08.824Z,11.34
2018-09-24T22:12:44.644Z,11.36
2018-09-24T22:15:20.391Z,11.32
2018-09-24T22:17:56.440Z,11.28
2018-09-24T22:20:31.854Z,11.31
2018-09-24T22:23:09.072Z,11.28
2018-09-24T22:25:44.840Z,11.27
2018-09-24T22:28:20.423Z,11.20
2018-09-24T22:30:56.328Z,11.24
2018-09-24T22:33:31.765Z,11.24
2018-09-24T22:36:07.639Z,11.20
2018-09-24T22:38:43.800Z,11.15
2018-09-24T22:41:19.764Z,11.13
2018-09-24T22:43:55.589Z,11.08
2018-09-24T22:46:31.295Z,11.00
2018-09-24T22:49:06.834Z,11.00
2018-09-24T22:51:42.752Z,10.99
2018-09-24T22:54:18.649Z,10.95
2018-09-24T22:56:54.682Z,10.91
2018-09-24T22:59:30.415Z,10.89
2018-09-24T23:02:05.954Z,10.83
2018-09-24T23:04:41.864Z,10.86
2018-09-24T23:07:17.752Z,10.88
2018-09-24T23:09:53.348Z,10.82
2018-09-24T23:12:29.200Z,10.80
2018-09-24T23:15:04.777Z,10.76
2018-09-24T23:17:40.514Z,10.80
2018-09-24T23:20:16.364Z,10.83
2018-09-24T23:22:52.218Z,10.83
2018-09-24T23:25:28.001Z,10.84
2018-09-24T23:28:03.809Z,10.84
2018-09-24T23:30:39.625Z,10.89
2018-09-24T23:33:15.336Z,10.83
2018-09-24T23:35:51.184Z,10.89
2018-09-24T23:38:27.040Z,10.83
2018-09-24T23:41:02.868Z,10.91
2018-09-24T23:43:39.159Z,10.91
2018-09-24T23:46:15.073Z,10.91
2018-09-24T23:48:50.560Z,10.93
2018-09-24T23:51:26.256Z,10.88
2018-09-24T23:54:01.972Z,11.07
2018-09-24T23:56:37.542Z,10.87
2018-09-24T23:59:13.970Z,10.85
